createdAt,value
2018-06-10T00:01:58.920Z,17.79
2018-06-10T00:07:02.101Z,17.70
2018-06-10T00:12:05.293Z,17.57
2018-06-10T00:22:28.569Z,17.39
2018-06-10T00:27:31.794Z,17.36
2018-06-10T00:32:34.882Z,17.40
2018-06-10T00:37:38.056Z,17.32
2018-06-10T00:42:41.264Z,17.20
2018-06-10T00:47:44.393Z,17.07
2018-06-10T00:52:47.742Z,16.96
2018-06-10T00:57:51.013Z,16.96
2018-06-10T01:02:54.146Z,16.87
2018-06-10T01:07:57.357Z,16.82
2018-06-10T01:13:00.495Z,16.81
2018-06-10T01:18:04.236Z,16.78
2018-06-10T01:23:07.343Z,16.66
2018-06-10T01:28:10.503Z,16.55
2018-06-10T01:33:13.588Z,16.45
2018-06-10T01:38:16.662Z,16.34
2018-06-10T01:43:19.838Z,16.35
2018-06-10T01:48:23.652Z,16.44
2018-06-10T01:53:26.756Z,16.32
2018-06-10T01:58:29.958Z,16.26
2018-06-10T02:03:33.059Z,16.17
2018-06-10T02:08:36.534Z,16.10
2018-06-10T02:13:39.659Z,16.01
2018-06-10T02:18:42.761Z,16.04
2018-06-10T02:23:45.890Z,15.95
2018-06-10T02:28:48.967Z,15.99
2018-06-10T02:33:52.158Z,15.92
2018-06-10T02:38:55.224Z,15.83
2018-06-10T02:43:58.373Z,15.78
2018-06-10T02:49:01.482Z,15.85
2018-06-10T02:54:04.794Z,15.84
2018-06-10T02:59:08.075Z,15.79
2018-06-10T03:04:11.229Z,15.87
2018-06-10T03:09:14.388Z,15.95
2018-06-10T03:14:17.595Z,16.01
2018-06-10T03:19:20.698Z,16.17
2018-06-10T03:24:23.923Z,16.45
2018-06-10T03:29:27.049Z,16.67
2018-06-10T03:34:30.200Z,16.83
2018-06-10T03:39:33.348Z,16.77
2018-06-10T03:44:36.533Z,16.94
2018-06-10T03:49:39.767Z,17.20
2018-06-10T03:54:43.169Z,17.50
2018-06-10T03:59:46.436Z,17.68
2018-06-10T04:04:49.659Z,17.77
2018-06-10T04:09:52.824Z,17.99
2018-06-10T04:14:55.929Z,18.12
2018-06-10T04:19:59.084Z,18.27
2018-06-10T04:25:02.180Z,18.32
2018-06-10T04:30:05.266Z,18.56
2018-06-10T04:35:08.431Z,21.38
2018-06-10T04:40:11.604Z,24.61
2018-06-10T04:45:14.845Z,24.34
2018-06-10T04:50:18.081Z,27.67
2018-06-10T04:55:21.394Z,28.60
2018-06-10T05:00:25.630Z,26.29
2018-06-10T05:05:29.162Z,24.55
2018-06-10T05:10:32.459Z,24.43
2018-06-10T05:15:36.179Z,24.50
2018-06-10T05:20:39.332Z,25.89
2018-06-10T05:25:42.593Z,29.28
2018-06-10T05:30:45.735Z,31.36
2018-06-10T05:35:48.895Z,32.67
2018-06-10T05:40:52.024Z,34.49
2018-06-10T05:45:55.129Z,36.38
2018-06-10T05:50:58.340Z,38.06
2018-06-10T05:56:01.481Z,38.08
2018-06-10T06:01:04.691Z,39.91
2018-06-10T06:06:08.613Z,40.90
2018-06-10T06:11:11.721Z,40.40
2018-06-10T06:16:14.922Z,38.08
2018-06-10T06:21:18.079Z,38.25
2018-06-10T06:26:21.209Z,39.59
2018-06-10T06:31:24.435Z,39.55
2018-06-10T06:36:27.673Z,39.21
2018-06-10T06:41:30.749Z,36.60
2018-06-10T06:46:33.872Z,37.17
2018-06-10T06:51:37.020Z,39.88
2018-06-10T06:56:40.152Z,40.31
2018-06-10T07:01:43.287Z,40.98
2018-06-10T07:06:46.389Z,38.18
2018-06-10T07:11:49.602Z,38.26
2018-06-10T07:16:52.887Z,36.83
2018-06-10T07:21:56.011Z,35.65
2018-06-10T07:26:59.132Z,37.16
2018-06-10T07:32:02.245Z,38.25
2018-06-10T07:37:05.360Z,39.60
2018-06-10T07:42:08.502Z,41.79
2018-06-10T07:47:11.584Z,39.55
2018-06-10T07:52:14.732Z,38.47
2018-06-10T07:57:17.892Z,39.08
2018-06-10T08:02:21.024Z,38.50
2018-06-10T08:07:24.131Z,39.25
2018-06-10T08:12:27.294Z,38.10
2018-06-10T08:17:30.415Z,39.94
2018-06-10T08:22:33.542Z,41.11
2018-06-10T08:27:36.907Z,40.66
2018-06-10T08:32:40.086Z,40.00
2018-06-10T08:37:43.224Z,41.35
2018-06-10T08:42:47.318Z,41.05
2018-06-10T08:47:50.484Z,41.58
2018-06-10T08:52:53.670Z,40.81
2018-06-10T08:57:56.816Z,39.83
2018-06-10T09:02:59.936Z,40.32
2018-06-10T09:08:03.079Z,40.56
2018-06-10T09:13:06.182Z,39.21
2018-06-10T09:18:09.281Z,38.44
2018-06-10T09:23:12.440Z,35.39
2018-06-10T09:28:15.662Z,35.06
2018-06-10T09:33:18.953Z,36.47
2018-06-10T09:38:22.048Z,37.62
2018-06-10T09:43:25.176Z,38.84
2018-06-10T09:48:28.303Z,38.79
2018-06-10T09:53:31.369Z,37.60
2018-06-10T09:58:34.866Z,36.58
2018-06-10T10:03:37.918Z,35.19
2018-06-10T10:08:41.023Z,34.99
2018-06-10T10:13:44.108Z,35.85
2018-06-10T10:18:47.277Z,34.82
2018-06-10T10:23:50.411Z,35.11
2018-06-10T10:28:53.557Z,35.75
2018-06-10T10:33:56.722Z,36.06
2018-06-10T10:38:59.818Z,35.03
2018-06-10T10:44:03.043Z,34.52
2018-06-10T10:49:06.265Z,33.06
2018-06-10T10:54:09.362Z,32.05
2018-06-10T10:59:12.501Z,32.52
2018-06-10T11:04:15.620Z,33.48
2018-06-10T11:09:18.799Z,35.20
2018-06-10T11:14:22.132Z,34.51
2018-06-10T11:19:25.356Z,33.53
2018-06-10T11:24:28.549Z,33.44
2018-06-10T11:29:31.672Z,33.21
2018-06-10T11:34:42.106Z,32.46
2018-06-10T11:45:03.912Z,31.29
2018-06-10T11:50:07.252Z,31.14
2018-06-10T11:55:10.383Z,30.57
2018-06-10T12:00:13.474Z,30.55
2018-06-10T12:05:16.690Z,30.02
2018-06-10T12:10:19.808Z,30.18
2018-06-10T12:15:22.898Z,30.32
2018-06-10T12:20:26.834Z,30.15
2018-06-10T12:25:30.369Z,29.74
2018-06-10T12:30:33.584Z,30.97
2018-06-10T12:35:36.758Z,31.66
2018-06-10T12:40:39.914Z,30.48
2018-06-10T12:45:43.220Z,29.19
2018-06-10T12:50:46.435Z,28.48
2018-06-10T12:55:49.645Z,27.68
2018-06-10T13:00:52.825Z,26.56
2018-06-10T13:05:56.022Z,26.97
2018-06-10T13:10:59.130Z,27.56
2018-06-10T13:16:02.238Z,28.32
2018-06-10T13:21:05.356Z,28.77
2018-06-10T13:26:08.424Z,29.03
2018-06-10T13:31:11.554Z,28.94
2018-06-10T13:36:14.757Z,28.78
2018-06-10T13:41:18.054Z,28.78
2018-06-10T13:46:21.440Z,28.72
2018-06-10T13:51:24.730Z,28.81
2018-06-10T13:56:27.983Z,29.73
2018-06-10T14:01:31.169Z,29.19
2018-06-10T14:06:34.263Z,28.67
2018-06-10T14:11:37.405Z,28.21
2018-06-10T14:16:40.565Z,26.57
2018-06-10T14:21:44.519Z,25.75
2018-06-10T14:26:47.824Z,25.42
2018-06-10T14:31:50.915Z,25.11
2018-06-10T14:36:54.121Z,24.99
2018-06-10T14:41:57.308Z,24.68
2018-06-10T14:47:00.484Z,23.99
2018-06-10T14:52:03.608Z,23.06
2018-06-10T14:57:06.824Z,22.00
2018-06-10T15:02:10.142Z,22.13
2018-06-10T15:07:13.274Z,22.52
2018-06-10T15:12:16.557Z,22.58
2018-06-10T15:17:21.895Z,22.89
2018-06-10T15:22:25.322Z,22.89
2018-06-10T15:27:28.440Z,23.52
2018-06-10T15:32:32.623Z,24.07
2018-06-10T15:37:35.876Z,24.73
2018-06-10T15:42:40.302Z,25.89
2018-06-10T15:47:44.153Z,26.64
2018-06-10T15:52:47.554Z,27.41
2018-06-10T15:57:51.513Z,27.07
2018-06-10T16:02:54.921Z,25.48
2018-06-10T16:07:58.509Z,25.10
2018-06-10T16:13:02.580Z,25.01
2018-06-10T16:18:06.142Z,24.95
2018-06-10T16:23:09.285Z,25.00
2018-06-10T16:28:12.394Z,24.37
2018-06-10T16:33:15.583Z,24.61
2018-06-10T16:38:18.803Z,24.45
2018-06-10T16:43:22.700Z,24.21
2018-06-10T16:48:26.435Z,23.86
2018-06-10T16:53:29.860Z,23.60
2018-06-10T16:58:33.593Z,23.37
2018-06-10T17:03:36.946Z,23.23
2018-06-10T17:08:40.199Z,23.07
2018-06-10T17:13:43.273Z,22.96
2018-06-10T17:18:46.811Z,22.94
2018-06-10T17:23:50.185Z,22.89
2018-06-10T17:28:53.322Z,22.83
2018-06-10T17:33:56.531Z,22.79
2018-06-10T17:38:59.669Z,22.83
2018-06-10T17:44:03.226Z,22.98
2018-06-10T17:49:06.381Z,23.00
2018-06-10T17:54:09.488Z,23.00
2018-06-10T17:59:12.684Z,22.77
2018-06-10T18:04:16.300Z,22.59
2018-06-10T18:09:20.029Z,22.48
2018-06-10T18:14:23.158Z,22.59
2018-06-10T18:19:26.426Z,22.45
2018-06-10T18:24:29.638Z,22.33
2018-06-10T18:29:32.767Z,22.01
2018-06-10T18:34:40.151Z,21.91
2018-06-10T18:39:43.289Z,21.84
2018-06-10T18:44:48.261Z,21.83
2018-06-10T18:49:51.599Z,21.94
2018-06-10T18:54:54.730Z,21.70
2018-06-10T18:59:59.240Z,21.61
2018-06-10T19:05:03.159Z,21.52
2018-06-10T19:10:06.523Z,21.28
2018-06-10T19:15:09.619Z,21.19
2018-06-10T19:20:12.933Z,20.90
2018-06-10T19:25:17.085Z,20.80
2018-06-10T19:30:20.920Z,20.60
2018-06-10T19:35:27.001Z,20.45
2018-06-10T19:40:30.700Z,20.28
2018-06-10T19:45:34.937Z,20.20
2018-06-10T19:50:38.996Z,20.13
2018-06-10T19:55:42.126Z,20.13
2018-06-10T20:00:45.763Z,20.10
2018-06-10T20:05:49.605Z,20.13
2018-06-10T20:10:52.957Z,20.00
2018-06-10T20:15:56.041Z,19.96
2018-06-10T20:20:59.757Z,19.91
2018-06-10T20:26:03.544Z,19.82
2018-06-10T20:31:07.973Z,19.67
2018-06-10T20:36:13.162Z,19.56
2018-06-10T20:41:19.230Z,19.50
2018-06-10T20:46:22.475Z,19.28
2018-06-10T20:51:25.827Z,19.20
2018-06-10T20:56:29.005Z,19.13
2018-06-10T21:01:32.243Z,18.99
2018-06-10T21:06:35.357Z,18.90
2018-06-10T21:11:38.884Z,18.89
2018-06-10T21:16:41.968Z,18.84
2018-06-10T21:21:45.266Z,18.87
2018-06-10T21:26:48.651Z,18.70
2018-06-10T21:31:52.208Z,18.63
2018-06-10T21:36:55.431Z,18.55
2018-06-10T21:41:58.699Z,18.44
2018-06-10T21:47:01.789Z,18.26
2018-06-10T21:52:05.023Z,18.20
2018-06-10T21:57:08.129Z,18.14
2018-06-10T22:02:11.283Z,18.08
2018-06-10T22:07:14.472Z,18.06
2018-06-10T22:12:17.735Z,18.15
2018-06-10T22:17:21.054Z,18.10
2018-06-10T22:22:24.264Z,18.02
2018-06-10T22:27:27.352Z,17.96
2018-06-10T22:32:30.446Z,17.90
2018-06-10T22:37:33.563Z,17.83
2018-06-10T22:42:36.696Z,17.85
2018-06-10T22:47:43.770Z,17.75
2018-06-10T22:52:47.743Z,17.96
2018-06-10T22:57:50.978Z,17.80
2018-06-10T23:02:54.199Z,17.68
2018-06-10T23:07:57.437Z,17.63
2018-06-10T23:13:00.785Z,17.53
2018-06-10T23:18:03.873Z,17.50
2018-06-10T23:23:06.967Z,17.48
2018-06-10T23:28:11.727Z,17.28
2018-06-10T23:33:15.151Z,17.28
2018-06-10T23:38:19.225Z,17.31
2018-06-10T23:43:23.373Z,17.50
2018-06-10T23:48:26.676Z,17.56
2018-06-10T23:53:31.938Z,17.56
2018-06-10T23:58:35.016Z,17.39
